sensor_id;sensor_type;location;lat;lon;timestamp;P1;durP1;ratioP1;P2;durP2;ratioP2
55633;SDS011;41504;53.162;6.788;2022-07-29T00:01:50;3.97;;;1.50;;
55633;SDS011;41504;53.162;6.788;2022-07-29T00:04:17;4.20;;;1.70;;
55633;SDS011;41504;53.162;6.788;2022-07-29T00:06:44;5.78;;;1.92;;
55633;SDS011;41504;53.162;6.788;2022-07-29T00:09:11;5.28;;;1.83;;
55633;SDS011;41504;53.162;6.788;2022-07-29T00:11:36;2.78;;;1.45;;
55633;SDS011;41504;53.162;6.788;2022-07-29T00:14:02;3.42;;;1.70;;
55633;SDS011;41504;53.162;6.788;2022-07-29T00:16:28;6.22;;;1.80;;
55633;SDS011;41504;53.162;6.788;2022-07-29T00:18:54;3.88;;;1.30;;
55633;SDS011;41504;53.162;6.788;2022-07-29T00:21:19;5.35;;;1.67;;
55633;SDS011;41504;53.162;6.788;2022-07-29T00:23:45;3.13;;;1.40;;
55633;SDS011;41504;53.162;6.788;2022-07-29T00:26:10;6.25;;;2.10;;
55633;SDS011;41504;53.162;6.788;2022-07-29T00:28:36;4.07;;;1.73;;
55633;SDS011;41504;53.162;6.788;2022-07-29T00:31:02;4.85;;;1.83;;
55633;SDS011;41504;53.162;6.788;2022-07-29T00:33:28;3.33;;;1.42;;
55633;SDS011;41504;53.162;6.788;2022-07-29T00:35:54;4.63;;;1.50;;
55633;SDS011;41504;53.162;6.788;2022-07-29T00:38:19;4.20;;;1.80;;
55633;SDS011;41504;53.162;6.788;2022-07-29T00:40:46;4.90;;;1.73;;
55633;SDS011;41504;53.162;6.788;2022-07-29T00:43:12;2.97;;;1.60;;
55633;SDS011;41504;53.162;6.788;2022-07-29T00:45:39;3.95;;;1.80;;
55633;SDS011;41504;53.162;6.788;2022-07-29T00:48:06;4.18;;;1.98;;
55633;SDS011;41504;53.162;6.788;2022-07-29T00:50:33;4.80;;;2.05;;
55633;SDS011;41504;53.162;6.788;2022-07-29T00:53:00;4.13;;;1.73;;
55633;SDS011;41504;53.162;6.788;2022-07-29T00:55:26;3.45;;;1.85;;
55633;SDS011;41504;53.162;6.788;2022-07-29T00:57:52;3.63;;;1.65;;
55633;SDS011;41504;53.162;6.788;2022-07-29T01:00:22;3.90;;;1.70;;
55633;SDS011;41504;53.162;6.788;2022-07-29T01:02:52;4.55;;;1.83;;
55633;SDS011;41504;53.162;6.788;2022-07-29T01:05:19;5.75;;;1.85;;
55633;SDS011;41504;53.162;6.788;2022-07-29T01:07:47;5.60;;;1.60;;
55633;SDS011;41504;53.162;6.788;2022-07-29T01:10:16;4.00;;;1.60;;
55633;SDS011;41504;53.162;6.788;2022-07-29T01:12:43;5.32;;;1.70;;
55633;SDS011;41504;53.162;6.788;2022-07-29T01:15:11;4.10;;;1.90;;
55633;SDS011;41504;53.162;6.788;2022-07-29T01:17:43;3.92;;;1.60;;
55633;SDS011;41504;53.162;6.788;2022-07-29T01:28:10;6.07;;;1.98;;
55633;SDS011;41504;53.162;6.788;2022-07-29T01:30:59;4.13;;;1.98;;
55633;SDS011;41504;53.162;6.788;2022-07-29T01:33:27;5.78;;;1.85;;
55633;SDS011;41504;53.162;6.788;2022-07-29T01:36:14;4.30;;;1.70;;
55633;SDS011;41504;53.162;6.788;2022-07-29T01:38:45;3.97;;;1.77;;
55633;SDS011;41504;53.162;6.788;2022-07-29T01:41:18;6.03;;;1.85;;
55633;SDS011;41504;53.162;6.788;2022-07-29T01:43:53;3.92;;;1.60;;
55633;SDS011;41504;53.162;6.788;2022-07-29T01:46:27;4.05;;;1.77;;
55633;SDS011;41504;53.162;6.788;2022-07-29T01:49:08;4.63;;;1.63;;
55633;SDS011;41504;53.162;6.788;2022-07-29T01:51:47;3.45;;;1.40;;
55633;SDS011;41504;53.162;6.788;2022-07-29T01:56:47;5.90;;;1.65;;
55633;SDS011;41504;53.162;6.788;2022-07-29T01:59:15;4.28;;;1.52;;
55633;SDS011;41504;53.162;6.788;2022-07-29T02:01:44;3.60;;;1.60;;
55633;SDS011;41504;53.162;6.788;2022-07-29T02:04:11;3.50;;;1.50;;
55633;SDS011;41504;53.162;6.788;2022-07-29T02:06:40;4.32;;;1.50;;
55633;SDS011;41504;53.162;6.788;2022-07-29T02:09:10;3.35;;;1.40;;
55633;SDS011;41504;53.162;6.788;2022-07-29T02:11:38;5.43;;;1.60;;
55633;SDS011;41504;53.162;6.788;2022-07-29T02:14:05;4.35;;;1.67;;
55633;SDS011;41504;53.162;6.788;2022-07-29T02:16:33;3.50;;;1.48;;
55633;SDS011;41504;53.162;6.788;2022-07-29T02:19:02;3.25;;;1.60;;
55633;SDS011;41504;53.162;6.788;2022-07-29T02:21:30;4.30;;;1.70;;
55633;SDS011;41504;53.162;6.788;2022-07-29T02:23:59;4.03;;;1.30;;
55633;SDS011;41504;53.162;6.788;2022-07-29T02:26:28;2.58;;;1.40;;
55633;SDS011;41504;53.162;6.788;2022-07-29T02:28:56;4.45;;;1.83;;
55633;SDS011;41504;53.162;6.788;2022-07-29T02:31:24;3.45;;;1.60;;
55633;SDS011;41504;53.162;6.788;2022-07-29T02:33:53;5.57;;;2.00;;
55633;SDS011;41504;53.162;6.788;2022-07-29T02:36:21;4.75;;;1.55;;
55633;SDS011;41504;53.162;6.788;2022-07-29T02:38:48;4.28;;;1.73;;
55633;SDS011;41504;53.162;6.788;2022-07-29T02:41:18;3.10;;;1.60;;
55633;SDS011;41504;53.162;6.788;2022-07-29T02:43:48;4.45;;;1.70;;
55633;SDS011;41504;53.162;6.788;2022-07-29T02:46:20;4.47;;;1.60;;
55633;SDS011;41504;53.162;6.788;2022-07-29T02:49:04;3.70;;;1.80;;
55633;SDS011;41504;53.162;6.788;2022-07-29T02:51:54;3.67;;;1.80;;
55633;SDS011;41504;53.162;6.788;2022-07-29T02:54:44;4.32;;;1.60;;
55633;SDS011;41504;53.162;6.788;2022-07-29T02:57:14;2.75;;;1.77;;
55633;SDS011;41504;53.162;6.788;2022-07-29T02:59:47;4.22;;;1.70;;
55633;SDS011;41504;53.162;6.788;2022-07-29T03:02:16;4.97;;;2.15;;
55633;SDS011;41504;53.162;6.788;2022-07-29T03:04:43;4.57;;;1.65;;
55633;SDS011;41504;53.162;6.788;2022-07-29T03:07:12;3.70;;;1.92;;
55633;SDS011;41504;53.162;6.788;2022-07-29T03:09:40;5.00;;;1.63;;
55633;SDS011;41504;53.162;6.788;2022-07-29T03:12:08;5.63;;;1.90;;
55633;SDS011;41504;53.162;6.788;2022-07-29T03:14:34;4.28;;;1.60;;
55633;SDS011;41504;53.162;6.788;2022-07-29T03:17:00;5.03;;;2.08;;
55633;SDS011;41504;53.162;6.788;2022-07-29T03:19:27;4.75;;;2.00;;
55633;SDS011;41504;53.162;6.788;2022-07-29T03:21:55;4.43;;;2.00;;
55633;SDS011;41504;53.162;6.788;2022-07-29T03:24:31;4.45;;;1.67;;
55633;SDS011;41504;53.162;6.788;2022-07-29T03:27:01;3.42;;;1.60;;
55633;SDS011;41504;53.162;6.788;2022-07-29T03:29:28;3.75;;;1.65;;
55633;SDS011;41504;53.162;6.788;2022-07-29T03:31:54;4.65;;;1.70;;
55633;SDS011;41504;53.162;6.788;2022-07-29T03:34:19;5.28;;;2.00;;
55633;SDS011;41504;53.162;6.788;2022-07-29T03:36:45;4.00;;;1.73;;
55633;SDS011;41504;53.162;6.788;2022-07-29T03:39:11;4.10;;;1.80;;
55633;SDS011;41504;53.162;6.788;2022-07-29T03:41:41;5.47;;;2.00;;
55633;SDS011;41504;53.162;6.788;2022-07-29T03:44:09;6.50;;;2.03;;
55633;SDS011;41504;53.162;6.788;2022-07-29T03:46:35;4.00;;;1.90;;
55633;SDS011;41504;53.162;6.788;2022-07-29T03:49:04;5.05;;;1.63;;
55633;SDS011;41504;53.162;6.788;2022-07-29T03:51:33;5.07;;;1.80;;
55633;SDS011;41504;53.162;6.788;2022-07-29T03:54:03;5.65;;;1.92;;
55633;SDS011;41504;53.162;6.788;2022-07-29T03:56:29;4.85;;;1.60;;
55633;SDS011;41504;53.162;6.788;2022-07-29T03:58:59;4.05;;;1.45;;
55633;SDS011;41504;53.162;6.788;2022-07-29T04:01:27;5.38;;;1.88;;
55633;SDS011;41504;53.162;6.788;2022-07-29T04:03:54;6.05;;;1.75;;
55633;SDS011;41504;53.162;6.788;2022-07-29T04:06:21;4.90;;;1.70;;
55633;SDS011;41504;53.162;6.788;2022-07-29T04:08:46;6.00;;;2.10;;
55633;SDS011;41504;53.162;6.788;2022-07-29T04:11:12;3.60;;;1.83;;
55633;SDS011;41504;53.162;6.788;2022-07-29T04:13:38;5.63;;;1.95;;
55633;SDS011;41504;53.162;6.788;2022-07-29T04:16:04;6.80;;;1.92;;
55633;SDS011;41504;53.162;6.788;2022-07-29T04:18:29;4.13;;;1.80;;
55633;SDS011;41504;53.162;6.788;2022-07-29T04:20:55;6.13;;;2.00;;
55633;SDS011;41504;53.162;6.788;2022-07-29T04:23:21;4.22;;;1.95;;
55633;SDS011;41504;53.162;6.788;2022-07-29T04:25:46;5.55;;;1.70;;
55633;SDS011;41504;53.162;6.788;2022-07-29T04:28:12;5.88;;;1.83;;
55633;SDS011;41504;53.162;6.788;2022-07-29T04:30:39;5.03;;;1.80;;
55633;SDS011;41504;53.162;6.788;2022-07-29T04:33:05;5.25;;;1.92;;
55633;SDS011;41504;53.162;6.788;2022-07-29T04:35:38;4.90;;;1.50;;
55633;SDS011;41504;53.162;6.788;2022-07-29T04:38:04;3.60;;;1.60;;
55633;SDS011;41504;53.162;6.788;2022-07-29T04:40:30;3.38;;;1.70;;
55633;SDS011;41504;53.162;6.788;2022-07-29T04:42:58;4.32;;;1.80;;
55633;SDS011;41504;53.162;6.788;2022-07-29T04:45:25;6.00;;;1.80;;
55633;SDS011;41504;53.162;6.788;2022-07-29T04:47:51;5.25;;;1.80;;
55633;SDS011;41504;53.162;6.788;2022-07-29T04:50:16;4.38;;;1.80;;
55633;SDS011;41504;53.162;6.788;2022-07-29T04:52:42;4.40;;;1.77;;
55633;SDS011;41504;53.162;6.788;2022-07-29T04:55:08;6.28;;;1.77;;
55633;SDS011;41504;53.162;6.788;2022-07-29T04:57:34;6.57;;;1.70;;
55633;SDS011;41504;53.162;6.788;2022-07-29T05:00:00;6.07;;;2.42;;
55633;SDS011;41504;53.162;6.788;2022-07-29T05:02:26;3.88;;;1.77;;
55633;SDS011;41504;53.162;6.788;2022-07-29T05:04:52;3.65;;;1.73;;
55633;SDS011;41504;53.162;6.788;2022-07-29T05:07:18;4.28;;;1.60;;
55633;SDS011;41504;53.162;6.788;2022-07-29T05:09:44;4.53;;;1.83;;
55633;SDS011;41504;53.162;6.788;2022-07-29T05:12:10;4.53;;;1.80;;
55633;SDS011;41504;53.162;6.788;2022-07-29T05:14:36;4.82;;;1.77;;
55633;SDS011;41504;53.162;6.788;2022-07-29T05:17:02;4.13;;;1.70;;
55633;SDS011;41504;53.162;6.788;2022-07-29T05:19:28;4.30;;;1.63;;
55633;SDS011;41504;53.162;6.788;2022-07-29T05:21:54;4.43;;;1.60;;
55633;SDS011;41504;53.162;6.788;2022-07-29T05:24:19;5.75;;;1.88;;
55633;SDS011;41504;53.162;6.788;2022-07-29T05:26:45;7.70;;;1.80;;
55633;SDS011;41504;53.162;6.788;2022-07-29T05:29:11;6.40;;;1.88;;
55633;SDS011;41504;53.162;6.788;2022-07-29T05:31:37;5.30;;;1.67;;
55633;SDS011;41504;53.162;6.788;2022-07-29T05:34:02;4.75;;;2.00;;
55633;SDS011;41504;53.162;6.788;2022-07-29T05:36:28;5.00;;;1.65;;
55633;SDS011;41504;53.162;6.788;2022-07-29T05:38:54;4.30;;;1.70;;
55633;SDS011;41504;53.162;6.788;2022-07-29T05:41:19;4.68;;;1.98;;
55633;SDS011;41504;53.162;6.788;2022-07-29T05:43:46;4.78;;;1.88;;
55633;SDS011;41504;53.162;6.788;2022-07-29T05:46:11;5.45;;;1.90;;
55633;SDS011;41504;53.162;6.788;2022-07-29T05:48:38;5.80;;;1.80;;
55633;SDS011;41504;53.162;6.788;2022-07-29T05:51:04;5.82;;;1.80;;
55633;SDS011;41504;53.162;6.788;2022-07-29T05:53:30;4.00;;;1.90;;
55633;SDS011;41504;53.162;6.788;2022-07-29T05:55:56;3.90;;;1.77;;
55633;SDS011;41504;53.162;6.788;2022-07-29T05:58:21;6.22;;;2.00;;
55633;SDS011;41504;53.162;6.788;2022-07-29T06:00:47;5.35;;;2.00;;
55633;SDS011;41504;53.162;6.788;2022-07-29T06:03:13;4.80;;;1.67;;
55633;SDS011;41504;53.162;6.788;2022-07-29T06:05:39;5.57;;;2.00;;
55633;SDS011;41504;53.162;6.788;2022-07-29T06:08:05;5.65;;;1.70;;
55633;SDS011;41504;53.162;6.788;2022-07-29T06:10:32;8.15;;;2.30;;
55633;SDS011;41504;53.162;6.788;2022-07-29T06:12:59;4.93;;;1.77;;
55633;SDS011;41504;53.162;6.788;2022-07-29T06:15:24;5.38;;;2.00;;
55633;SDS011;41504;53.162;6.788;2022-07-29T06:17:51;4.25;;;1.70;;
55633;SDS011;41504;53.162;6.788;2022-07-29T06:20:17;4.63;;;1.70;;
55633;SDS011;41504;53.162;6.788;2022-07-29T06:22:43;5.35;;;2.05;;
55633;SDS011;41504;53.162;6.788;2022-07-29T06:25:09;6.10;;;1.98;;
55633;SDS011;41504;53.162;6.788;2022-07-29T06:27:35;6.25;;;1.80;;
55633;SDS011;41504;53.162;6.788;2022-07-29T06:30:01;5.35;;;1.80;;
55633;SDS011;41504;53.162;6.788;2022-07-29T06:32:27;4.38;;;1.73;;
55633;SDS011;41504;53.162;6.788;2022-07-29T06:34:52;8.10;;;1.92;;
55633;SDS011;41504;53.162;6.788;2022-07-29T06:37:18;4.88;;;2.08;;
55633;SDS011;41504;53.162;6.788;2022-07-29T06:39:44;6.00;;;2.05;;
55633;SDS011;41504;53.162;6.788;2022-07-29T06:42:10;5.00;;;2.10;;
55633;SDS011;41504;53.162;6.788;2022-07-29T06:44:35;6.80;;;2.03;;
55633;SDS011;41504;53.162;6.788;2022-07-29T06:47:01;4.70;;;1.83;;
55633;SDS011;41504;53.162;6.788;2022-07-29T06:49:27;6.18;;;2.10;;
55633;SDS011;41504;53.162;6.788;2022-07-29T06:51:53;8.48;;;2.20;;
55633;SDS011;41504;53.162;6.788;2022-07-29T06:54:20;5.80;;;1.98;;
55633;SDS011;41504;53.162;6.788;2022-07-29T06:56:46;6.68;;;2.33;;
55633;SDS011;41504;53.162;6.788;2022-07-29T06:59:12;6.47;;;1.98;;
55633;SDS011;41504;53.162;6.788;2022-07-29T07:01:40;6.80;;;2.00;;
55633;SDS011;41504;53.162;6.788;2022-07-29T07:04:07;5.07;;;2.20;;
55633;SDS011;41504;53.162;6.788;2022-07-29T07:06:34;4.03;;;2.08;;
55633;SDS011;41504;53.162;6.788;2022-07-29T07:08:59;9.75;;;2.47;;
55633;SDS011;41504;53.162;6.788;2022-07-29T07:11:25;4.57;;;2.28;;
55633;SDS011;41504;53.162;6.788;2022-07-29T07:13:52;5.55;;;2.00;;
55633;SDS011;41504;53.162;6.788;2022-07-29T07:16:18;4.80;;;2.05;;
55633;SDS011;41504;53.162;6.788;2022-07-29T07:18:43;6.20;;;1.90;;
55633;SDS011;41504;53.162;6.788;2022-07-29T07:21:10;6.43;;;2.25;;
55633;SDS011;41504;53.162;6.788;2022-07-29T07:23:36;6.00;;;1.95;;
55633;SDS011;41504;53.162;6.788;2022-07-29T07:26:08;7.13;;;2.28;;
55633;SDS011;41504;53.162;6.788;2022-07-29T07:28:33;6.93;;;2.17;;
55633;SDS011;41504;53.162;6.788;2022-07-29T07:30:59;5.43;;;2.53;;
55633;SDS011;41504;53.162;6.788;2022-07-29T07:33:25;5.50;;;2.20;;
55633;SDS011;41504;53.162;6.788;2022-07-29T07:35:50;6.07;;;2.20;;
55633;SDS011;41504;53.162;6.788;2022-07-29T07:38:16;5.03;;;2.10;;
55633;SDS011;41504;53.162;6.788;2022-07-29T07:40:42;5.65;;;2.00;;
55633;SDS011;41504;53.162;6.788;2022-07-29T07:43:07;4.90;;;2.20;;
55633;SDS011;41504;53.162;6.788;2022-07-29T07:45:33;6.25;;;2.42;;
55633;SDS011;41504;53.162;6.788;2022-07-29T07:48:01;6.28;;;2.50;;
55633;SDS011;41504;53.162;6.788;2022-07-29T07:50:28;4.78;;;2.10;;
55633;SDS011;41504;53.162;6.788;2022-07-29T07:52:54;6.50;;;2.55;;
55633;SDS011;41504;53.162;6.788;2022-07-29T07:55:22;7.28;;;2.30;;
55633;SDS011;41504;53.162;6.788;2022-07-29T07:57:48;6.72;;;2.10;;
55633;SDS011;41504;53.162;6.788;2022-07-29T08:00:14;7.28;;;2.63;;
55633;SDS011;41504;53.162;6.788;2022-07-29T08:02:41;5.47;;;1.95;;
55633;SDS011;41504;53.162;6.788;2022-07-29T08:05:10;7.53;;;2.50;;
55633;SDS011;41504;53.162;6.788;2022-07-29T08:07:38;7.10;;;2.50;;
55633;SDS011;41504;53.162;6.788;2022-07-29T08:10:04;7.97;;;3.03;;
55633;SDS011;41504;53.162;6.788;2022-07-29T08:12:30;7.82;;;2.30;;
55633;SDS011;41504;53.162;6.788;2022-07-29T08:14:56;7.30;;;2.13;;
55633;SDS011;41504;53.162;6.788;2022-07-29T08:17:21;4.85;;;2.33;;
55633;SDS011;41504;53.162;6.788;2022-07-29T08:19:47;8.23;;;2.80;;
55633;SDS011;41504;53.162;6.788;2022-07-29T08:22:13;6.13;;;2.60;;
55633;SDS011;41504;53.162;6.788;2022-07-29T08:24:39;6.80;;;2.60;;
55633;SDS011;41504;53.162;6.788;2022-07-29T08:27:11;6.40;;;2.58;;
55633;SDS011;41504;53.162;6.788;2022-07-29T08:29:37;8.18;;;2.70;;
55633;SDS011;41504;53.162;6.788;2022-07-29T08:32:04;6.78;;;2.38;;
55633;SDS011;41504;53.162;6.788;2022-07-29T08:34:30;4.70;;;1.88;;
55633;SDS011;41504;53.162;6.788;2022-07-29T08:36:58;6.60;;;2.40;;
55633;SDS011;41504;53.162;6.788;2022-07-29T08:39:24;5.57;;;2.22;;
55633;SDS011;41504;53.162;6.788;2022-07-29T08:41:50;6.78;;;2.20;;
55633;SDS011;41504;53.162;6.788;2022-07-29T08:44:17;5.88;;;2.50;;
55633;SDS011;41504;53.162;6.788;2022-07-29T08:46:43;5.80;;;2.35;;
55633;SDS011;41504;53.162;6.788;2022-07-29T08:49:09;6.38;;;2.10;;
55633;SDS011;41504;53.162;6.788;2022-07-29T08:51:35;6.30;;;2.33;;
55633;SDS011;41504;53.162;6.788;2022-07-29T08:54:03;4.75;;;2.20;;
55633;SDS011;41504;53.162;6.788;2022-07-29T08:56:30;4.03;;;1.90;;
55633;SDS011;41504;53.162;6.788;2022-07-29T08:58:57;6.97;;;2.42;;
55633;SDS011;41504;53.162;6.788;2022-07-29T09:01:25;7.93;;;2.33;;
55633;SDS011;41504;53.162;6.788;2022-07-29T09:03:56;5.15;;;2.30;;
55633;SDS011;41504;53.162;6.788;2022-07-29T09:06:26;6.05;;;2.25;;
55633;SDS011;41504;53.162;6.788;2022-07-29T09:08:56;4.00;;;2.17;;
55633;SDS011;41504;53.162;6.788;2022-07-29T09:11:24;4.65;;;2.03;;
55633;SDS011;41504;53.162;6.788;2022-07-29T09:13:50;7.40;;;2.30;;
55633;SDS011;41504;53.162;6.788;2022-07-29T09:16:16;4.43;;;2.03;;
55633;SDS011;41504;53.162;6.788;2022-07-29T09:18:42;4.80;;;2.20;;
55633;SDS011;41504;53.162;6.788;2022-07-29T09:21:11;5.03;;;2.15;;
55633;SDS011;41504;53.162;6.788;2022-07-29T09:24:04;5.60;;;2.33;;
55633;SDS011;41504;53.162;6.788;2022-07-29T09:26:30;5.57;;;2.53;;
55633;SDS011;41504;53.162;6.788;2022-07-29T09:28:57;5.63;;;2.60;;
55633;SDS011;41504;53.162;6.788;2022-07-29T09:31:34;5.32;;;2.35;;
55633;SDS011;41504;53.162;6.788;2022-07-29T09:34:02;5.70;;;2.20;;
55633;SDS011;41504;53.162;6.788;2022-07-29T09:36:28;5.95;;;2.45;;
55633;SDS011;41504;53.162;6.788;2022-07-29T09:39:00;5.95;;;2.05;;
55633;SDS011;41504;53.162;6.788;2022-07-29T09:43:53;6.85;;;2.85;;
55633;SDS011;41504;53.162;6.788;2022-07-29T09:46:20;5.50;;;2.30;;
55633;SDS011;41504;53.162;6.788;2022-07-29T09:48:55;5.95;;;2.33;;
55633;SDS011;41504;53.162;6.788;2022-07-29T09:51:35;5.53;;;2.45;;
55633;SDS011;41504;53.162;6.788;2022-07-29T09:54:01;6.40;;;2.40;;
55633;SDS011;41504;53.162;6.788;2022-07-29T09:56:39;7.22;;;2.53;;
55633;SDS011;41504;53.162;6.788;2022-07-29T09:59:08;12.40;;;2.90;;
55633;SDS011;41504;53.162;6.788;2022-07-29T10:01:36;6.32;;;2.65;;
55633;SDS011;41504;53.162;6.788;2022-07-29T10:04:02;5.00;;;2.35;;
55633;SDS011;41504;53.162;6.788;2022-07-29T10:06:28;6.40;;;2.45;;
55633;SDS011;41504;53.162;6.788;2022-07-29T10:08:55;5.07;;;2.42;;
55633;SDS011;41504;53.162;6.788;2022-07-29T10:11:35;5.85;;;2.50;;
55633;SDS011;41504;53.162;6.788;2022-07-29T10:14:02;5.95;;;2.50;;
55633;SDS011;41504;53.162;6.788;2022-07-29T10:16:29;6.75;;;2.25;;
55633;SDS011;41504;53.162;6.788;2022-07-29T10:19:00;4.10;;;2.30;;
55633;SDS011;41504;53.162;6.788;2022-07-29T10:21:26;5.82;;;2.58;;
55633;SDS011;41504;53.162;6.788;2022-07-29T10:23:53;8.20;;;3.35;;
55633;SDS011;41504;53.162;6.788;2022-07-29T10:26:19;6.95;;;2.60;;
55633;SDS011;41504;53.162;6.788;2022-07-29T10:28:45;5.63;;;2.80;;
55633;SDS011;41504;53.162;6.788;2022-07-29T10:31:48;6.32;;;2.40;;
55633;SDS011;41504;53.162;6.788;2022-07-29T10:34:21;4.85;;;2.30;;
55633;SDS011;41504;53.162;6.788;2022-07-29T10:39:45;7.25;;;3.10;;
55633;SDS011;41504;53.162;6.788;2022-07-29T10:42:52;5.18;;;2.72;;
55633;SDS011;41504;53.162;6.788;2022-07-29T10:45:20;6.30;;;2.85;;
55633;SDS011;41504;53.162;6.788;2022-07-29T10:47:46;7.47;;;3.05;;
55633;SDS011;41504;53.162;6.788;2022-07-29T10:50:11;6.03;;;2.63;;
55633;SDS011;41504;53.162;6.788;2022-07-29T10:58:12;6.63;;;2.90;;
55633;SDS011;41504;53.162;6.788;2022-07-29T11:00:38;7.90;;;2.90;;
55633;SDS011;41504;53.162;6.788;2022-07-29T11:03:04;8.32;;;3.25;;
55633;SDS011;41504;53.162;6.788;2022-07-29T11:05:30;5.28;;;2.55;;
55633;SDS011;41504;53.162;6.788;2022-07-29T11:08:20;7.32;;;2.80;;
55633;SDS011;41504;53.162;6.788;2022-07-29T11:10:48;5.68;;;2.50;;
55633;SDS011;41504;53.162;6.788;2022-07-29T11:16:13;9.00;;;3.25;;
55633;SDS011;41504;53.162;6.788;2022-07-29T11:21:50;6.90;;;3.15;;
55633;SDS011;41504;53.162;6.788;2022-07-29T11:27:10;7.32;;;3.15;;
55633;SDS011;41504;53.162;6.788;2022-07-29T11:29:47;6.38;;;2.75;;
55633;SDS011;41504;53.162;6.788;2022-07-29T11:32:21;7.60;;;2.50;;
55633;SDS011;41504;53.162;6.788;2022-07-29T11:34:49;6.55;;;2.40;;
55633;SDS011;41504;53.162;6.788;2022-07-29T11:37:36;8.88;;;2.80;;
55633;SDS011;41504;53.162;6.788;2022-07-29T11:45:03;6.88;;;2.53;;
55633;SDS011;41504;53.162;6.788;2022-07-29T11:47:31;5.90;;;2.40;;
55633;SDS011;41504;53.162;6.788;2022-07-29T11:50:12;7.78;;;3.05;;
55633;SDS011;41504;53.162;6.788;2022-07-29T11:52:44;5.50;;;3.22;;
55633;SDS011;41504;53.162;6.788;2022-07-29T11:55:13;7.53;;;3.13;;
55633;SDS011;41504;53.162;6.788;2022-07-29T11:57:50;8.15;;;2.80;;
55633;SDS011;41504;53.162;6.788;2022-07-29T12:03:09;5.90;;;3.30;;
55633;SDS011;41504;53.162;6.788;2022-07-29T12:05:37;6.50;;;2.95;;
55633;SDS011;41504;53.162;6.788;2022-07-29T12:13:05;7.38;;;3.30;;
55633;SDS011;41504;53.162;6.788;2022-07-29T12:15:31;10.27;;;3.28;;
55633;SDS011;41504;53.162;6.788;2022-07-29T12:17:58;9.40;;;3.78;;
55633;SDS011;41504;53.162;6.788;2022-07-29T12:20:34;6.28;;;3.08;;
55633;SDS011;41504;53.162;6.788;2022-07-29T12:23:04;8.85;;;3.38;;
55633;SDS011;41504;53.162;6.788;2022-07-29T12:25:32;6.78;;;3.08;;
55633;SDS011;41504;53.162;6.788;2022-07-29T12:28:06;6.50;;;3.13;;
55633;SDS011;41504;53.162;6.788;2022-07-29T12:30:35;7.38;;;3.40;;
55633;SDS011;41504;53.162;6.788;2022-07-29T12:33:11;5.70;;;3.25;;
55633;SDS011;41504;53.162;6.788;2022-07-29T12:35:38;9.75;;;3.40;;
55633;SDS011;41504;53.162;6.788;2022-07-29T12:38:05;7.47;;;3.35;;
55633;SDS011;41504;53.162;6.788;2022-07-29T12:40:31;5.88;;;2.65;;
55633;SDS011;41504;53.162;6.788;2022-07-29T12:45:32;7.13;;;3.30;;
55633;SDS011;41504;53.162;6.788;2022-07-29T12:47:58;6.22;;;3.10;;
55633;SDS011;41504;53.162;6.788;2022-07-29T12:50:24;6.93;;;3.05;;
55633;SDS011;41504;53.162;6.788;2022-07-29T12:52:51;7.90;;;3.10;;
55633;SDS011;41504;53.162;6.788;2022-07-29T12:55:38;6.47;;;2.92;;
55633;SDS011;41504;53.162;6.788;2022-07-29T12:58:07;6.97;;;2.72;;
55633;SDS011;41504;53.162;6.788;2022-07-29T13:00:33;6.05;;;2.60;;
55633;SDS011;41504;53.162;6.788;2022-07-29T13:02:59;5.60;;;2.35;;
55633;SDS011;41504;53.162;6.788;2022-07-29T13:05:44;6.40;;;2.65;;
55633;SDS011;41504;53.162;6.788;2022-07-29T13:08:14;7.30;;;2.85;;
55633;SDS011;41504;53.162;6.788;2022-07-29T13:10:41;6.68;;;2.58;;
55633;SDS011;41504;53.162;6.788;2022-07-29T13:13:08;5.80;;;2.42;;
55633;SDS011;41504;53.162;6.788;2022-07-29T13:15:38;7.68;;;2.90;;
55633;SDS011;41504;53.162;6.788;2022-07-29T13:18:06;7.03;;;2.80;;
55633;SDS011;41504;53.162;6.788;2022-07-29T13:21:10;6.50;;;2.40;;
55633;SDS011;41504;53.162;6.788;2022-07-29T13:23:40;7.75;;;2.50;;
55633;SDS011;41504;53.162;6.788;2022-07-29T13:26:06;7.35;;;2.70;;
55633;SDS011;41504;53.162;6.788;2022-07-29T13:28:36;7.25;;;2.95;;
55633;SDS011;41504;53.162;6.788;2022-07-29T13:31:02;6.78;;;3.03;;
55633;SDS011;41504;53.162;6.788;2022-07-29T13:33:29;7.82;;;2.70;;
55633;SDS011;41504;53.162;6.788;2022-07-29T13:35:55;7.20;;;2.60;;
55633;SDS011;41504;53.162;6.788;2022-07-29T13:38:21;6.20;;;2.67;;
55633;SDS011;41504;53.162;6.788;2022-07-29T13:40:47;7.35;;;3.05;;
55633;SDS011;41504;53.162;6.788;2022-07-29T13:43:13;7.65;;;3.03;;
55633;SDS011;41504;53.162;6.788;2022-07-29T13:45:39;5.70;;;2.70;;
55633;SDS011;41504;53.162;6.788;2022-07-29T13:48:04;9.20;;;3.30;;
55633;SDS011;41504;53.162;6.788;2022-07-29T13:50:31;6.47;;;3.03;;
55633;SDS011;41504;53.162;6.788;2022-07-29T13:52:57;9.23;;;3.03;;
55633;SDS011;41504;53.162;6.788;2022-07-29T13:55:23;10.45;;;2.80;;
55633;SDS011;41504;53.162;6.788;2022-07-29T13:57:49;6.28;;;3.13;;
55633;SDS011;41504;53.162;6.788;2022-07-29T14:00:15;6.20;;;2.90;;
55633;SDS011;41504;53.162;6.788;2022-07-29T14:02:41;8.70;;;3.20;;
55633;SDS011;41504;53.162;6.788;2022-07-29T14:05:07;9.25;;;3.00;;
55633;SDS011;41504;53.162;6.788;2022-07-29T14:07:35;6.90;;;3.13;;
55633;SDS011;41504;53.162;6.788;2022-07-29T14:10:01;6.65;;;3.25;;
55633;SDS011;41504;53.162;6.788;2022-07-29T14:12:27;6.72;;;2.60;;
55633;SDS011;41504;53.162;6.788;2022-07-29T14:14:53;7.40;;;2.67;;
55633;SDS011;41504;53.162;6.788;2022-07-29T14:17:19;7.32;;;2.97;;
55633;SDS011;41504;53.162;6.788;2022-07-29T14:19:45;7.90;;;2.72;;
55633;SDS011;41504;53.162;6.788;2022-07-29T14:22:10;6.70;;;2.92;;
55633;SDS011;41504;53.162;6.788;2022-07-29T14:24:36;6.00;;;3.00;;
55633;SDS011;41504;53.162;6.788;2022-07-29T14:27:03;7.10;;;2.80;;
55633;SDS011;41504;53.162;6.788;2022-07-29T14:29:30;7.18;;;2.40;;
55633;SDS011;41504;53.162;6.788;2022-07-29T14:31:56;10.75;;;2.80;;
55633;SDS011;41504;53.162;6.788;2022-07-29T14:34:21;6.70;;;2.65;;
55633;SDS011;41504;53.162;6.788;2022-07-29T14:36:47;7.28;;;2.80;;
55633;SDS011;41504;53.162;6.788;2022-07-29T14:39:13;8.73;;;4.18;;
55633;SDS011;41504;53.162;6.788;2022-07-29T14:41:40;6.68;;;2.90;;
55633;SDS011;41504;53.162;6.788;2022-07-29T14:44:06;7.25;;;3.08;;
55633;SDS011;41504;53.162;6.788;2022-07-29T14:46:32;6.70;;;2.60;;
55633;SDS011;41504;53.162;6.788;2022-07-29T14:48:57;5.35;;;2.20;;
55633;SDS011;41504;53.162;6.788;2022-07-29T14:51:23;6.72;;;2.33;;
55633;SDS011;41504;53.162;6.788;2022-07-29T14:53:49;5.55;;;2.38;;
55633;SDS011;41504;53.162;6.788;2022-07-29T14:56:15;5.40;;;2.30;;
55633;SDS011;41504;53.162;6.788;2022-07-29T14:58:40;6.82;;;2.60;;
55633;SDS011;41504;53.162;6.788;2022-07-29T15:01:06;6.60;;;2.50;;
55633;SDS011;41504;53.162;6.788;2022-07-29T15:03:32;6.38;;;2.15;;
55633;SDS011;41504;53.162;6.788;2022-07-29T15:05:57;5.70;;;2.10;;
55633;SDS011;41504;53.162;6.788;2022-07-29T15:08:23;5.65;;;2.13;;
55633;SDS011;41504;53.162;6.788;2022-07-29T15:10:50;5.70;;;2.20;;
55633;SDS011;41504;53.162;6.788;2022-07-29T15:13:16;6.20;;;2.35;;
55633;SDS011;41504;53.162;6.788;2022-07-29T15:15:41;5.47;;;2.25;;
55633;SDS011;41504;53.162;6.788;2022-07-29T15:18:07;6.47;;;2.25;;
55633;SDS011;41504;53.162;6.788;2022-07-29T15:20:34;4.75;;;2.00;;
55633;SDS011;41504;53.162;6.788;2022-07-29T15:22:59;6.78;;;1.95;;
55633;SDS011;41504;53.162;6.788;2022-07-29T15:25:25;6.32;;;2.40;;
55633;SDS011;41504;53.162;6.788;2022-07-29T15:27:51;6.78;;;2.60;;
55633;SDS011;41504;53.162;6.788;2022-07-29T15:30:17;7.47;;;2.50;;
55633;SDS011;41504;53.162;6.788;2022-07-29T15:32:43;4.97;;;2.58;;
55633;SDS011;41504;53.162;6.788;2022-07-29T15:35:09;5.68;;;2.40;;
55633;SDS011;41504;53.162;6.788;2022-07-29T15:37:36;7.03;;;2.58;;
55633;SDS011;41504;53.162;6.788;2022-07-29T15:40:03;7.75;;;2.53;;